Time;durP1;ratioP1;P1;durP2;ratioP2;P2;SDS_P1;SDS_P2;PMS_P1;PMS_P2;Temp;Humidity;BMP_temperature;BMP_pressure;BME280_temperature;BME280_humidity;BME280_pressure;Samples;Min_cycle;Max_cycle;Signal;HPM_P1;HPM_P2
2021/12/23 00:01:39;;;;;;;24.98;13.98;;;0.00;65.00;;;;;;5016145;28;20026;-22
2021/12/23 00:04:05;;;;;;;32.92;19.30;;;-0.10;65.00;;;;;;5015963;28;20022;-21
2021/12/23 00:06:31;;;;;;;54.33;28.25;;;-0.10;66.20;;;;;;5015912;28;20018;-21
2021/12/23 00:08:59;;;;;;;33.78;18.80;;;-0.10;68.20;;;;;;5015732;28;20548;-22
2021/12/23 00:11:27;;;;;;;27.83;14.80;;;-0.10;68.10;;;;;;5015702;28;20030;-22
2021/12/23 00:14:04;;;;;;;28.92;16.15;;;-0.10;67.40;;;;;;5015647;28;20116;-21
2021/12/23 00:16:46;;;;;;;20.88;10.77;;;0.00;68.10;;;;;;5015768;28;20045;-22
2021/12/23 00:19:36;;;;;;;16.05;8.65;;;0.00;67.20;;;;;;5016530;28;20061;-21
2021/12/23 00:24:49;;;;;;;17.90;9.45;;;0.00;68.50;;;;;;5016085;28;20053;-21
2021/12/23 00:27:15;;;;;;;15.60;7.95;;;0.10;67.80;;;;;;5015796;28;20036;-20
2021/12/23 00:29:42;;;;;;;9.38;5.78;;;0.10;67.20;;;;;;5015511;28;20113;-21
2021/12/23 00:32:09;;;;;;;44.72;24.10;;;0.20;66.60;;;;;;5015305;28;20022;-20
2021/12/23 00:34:36;;;;;;;14.63;8.15;;;0.20;66.40;;;;;;5015128;28;20030;-20
2021/12/23 00:37:04;;;;;;;12.40;6.57;;;0.30;66.70;;;;;;5015330;28;20014;-21
2021/12/23 00:39:31;;;;;;;12.10;6.22;;;0.30;66.00;;;;;;5015586;28;20037;-20
2021/12/23 00:42:06;;;;;;;12.27;6.40;;;0.30;65.70;;;;;;5015270;28;20481;-21
2021/12/23 00:44:34;;;;;;;19.80;11.88;;;0.30;65.70;;;;;;5014980;28;20037;-21
2021/12/23 00:47:00;;;;;;;13.82;7.40;;;0.30;65.80;;;;;;5015029;28;20048;-20
2021/12/23 00:49:26;;;;;;;14.32;7.80;;;0.30;65.90;;;;;;5013850;28;20029;-22
2021/12/23 00:51:53;;;;;;;15.07;8.38;;;0.30;65.50;;;;;;5015123;28;20030;-20
2021/12/23 00:54:19;;;;;;;22.15;11.93;;;0.30;65.60;;;;;;5014884;28;20030;-21
2021/12/23 00:56:49;;;;;;;15.32;7.07;;;0.20;65.20;;;;;;5015224;28;20022;-20
2021/12/23 00:59:15;;;;;;;13.82;7.50;;;0.20;65.50;;;;;;5015161;28;20022;-21
2021/12/23 01:01:41;;;;;;;8.48;5.30;;;0.20;65.20;;;;;;5014872;28;20393;-20
2021/12/23 01:04:08;;;;;;;15.27;7.50;;;0.10;65.10;;;;;;5014791;28;20026;-21
2021/12/23 01:06:34;;;;;;;17.85;9.35;;;0.10;65.10;;;;;;5013810;28;20487;-20
2021/12/23 01:09:00;;;;;;;20.42;11.20;;;0.10;65.10;;;;;;5013510;28;20233;-20
2021/12/23 01:11:27;;;;;;;10.13;5.38;;;0.00;65.10;;;;;;5015254;28;20482;-21
2021/12/23 01:14:02;;;;;;;11.10;6.57;;;0.00;65.10;;;;;;5014633;28;20061;-20
2021/12/23 01:17:42;;;;;;;9.63;4.82;;;0.00;65.30;;;;;;5014331;28;20029;-21
2021/12/23 01:19:26;;;;;;;14.55;8.40;;;0.00;65.10;;;;;;5018724;28;20386;-21
2021/12/23 01:21:52;;;;;;;8.95;4.55;;;0.00;65.20;;;;;;5014749;28;20030;-21
2021/12/23 01:24:19;;;;;;;13.13;7.47;;;-0.10;65.10;;;;;;5012938;28;20503;-22
2021/12/23 01:26:46;;;;;;;9.18;4.72;;;-0.10;65.20;;;;;;5014609;28;20501;-20
2021/12/23 01:29:12;;;;;;;17.50;8.52;;;-0.20;65.20;;;;;;5014852;28;20021;-22
2021/12/23 01:31:39;;;;;;;10.50;5.15;;;-0.30;65.30;;;;;;5014192;28;20029;-20
2021/12/23 01:34:06;;;;;;;8.50;4.68;;;-0.30;65.40;;;;;;5014567;28;20014;-21
2021/12/23 01:36:32;;;;;;;7.50;4.35;;;-0.30;65.30;;;;;;5014330;28;20034;-21
2021/12/23 01:38:59;;;;;;;9.93;4.60;;;-0.40;65.30;;;;;;5014988;28;20030;-20
2021/12/23 01:41:28;;;;;;;7.22;4.00;;;-0.40;65.40;;;;;;5014086;28;20034;-20
2021/12/23 01:43:55;;;;;;;10.27;5.20;;;-0.40;65.40;;;;;;5013974;28;20061;-20
2021/12/23 01:46:22;;;;;;;18.40;8.80;;;-0.50;65.50;;;;;;5013761;28;20032;-21
2021/12/23 01:48:49;;;;;;;11.77;5.97;;;-0.50;65.70;;;;;;5014006;28;20026;-21
2021/12/23 01:51:15;;;;;;;17.45;8.00;;;-0.60;65.90;;;;;;5013858;28;20062;-21
2021/12/23 01:53:41;;;;;;;10.25;5.00;;;-0.50;66.10;;;;;;5014236;28;20119;-21
2021/12/23 01:56:08;;;;;;;10.23;5.38;;;-0.60;65.80;;;;;;5014213;28;20026;-20
2021/12/23 01:58:40;;;;;;;19.67;10.38;;;-0.50;65.80;;;;;;5013642;28;20385;-21
2021/12/23 02:01:07;;;;;;;17.15;8.68;;;-0.50;65.70;;;;;;5014044;28;20018;-22
2021/12/23 02:03:33;;;;;;;13.20;7.63;;;-0.50;65.80;;;;;;5013964;28;20466;-20
2021/12/23 02:05:59;;;;;;;9.90;5.40;;;-0.50;65.70;;;;;;5014107;28;20389;-20
2021/12/23 02:08:25;;;;;;;23.85;13.45;;;-0.40;65.80;;;;;;5012296;28;20034;-19
2021/12/23 02:10:54;;;;;;;25.13;13.77;;;-0.40;65.90;;;;;;5012356;28;20038;-21
2021/12/23 02:13:22;;;;;;;21.77;10.00;;;-0.40;66.30;;;;;;5013941;28;20454;-20
2021/12/23 02:15:48;;;;;;;30.98;17.95;;;-0.40;66.00;;;;;;5013501;28;20022;-20
2021/12/23 02:18:15;;;;;;;19.33;9.80;;;-0.40;67.40;;;;;;5013512;28;20029;-22
2021/12/23 02:20:41;;;;;;;24.60;12.15;;;-0.50;66.80;;;;;;5013492;28;20040;-19
2021/12/23 02:23:09;;;;;;;13.50;7.78;;;-0.50;66.80;;;;;;5013530;28;20042;-19
2021/12/23 02:25:36;;;;;;;11.20;7.55;;;-0.50;66.30;;;;;;5013773;28;20513;-21
2021/12/23 02:28:07;;;;;;;12.07;7.15;;;-0.50;66.10;;;;;;5013538;28;20034;-19
2021/12/23 02:30:38;;;;;;;12.88;6.47;;;-0.60;66.00;;;;;;5013499;28;20041;-20
2021/12/23 02:33:07;;;;;;;8.57;4.72;;;-0.50;66.00;;;;;;5013370;28;20488;-20
2021/12/23 02:35:34;;;;;;;22.38;12.05;;;-0.60;65.90;;;;;;5013359;28;20489;-20
2021/12/23 02:38:01;;;;;;;15.18;8.05;;;-0.60;66.00;;;;;;5013408;28;20057;-20
2021/12/23 02:40:36;;;;;;;8.77;4.38;;;-0.60;66.00;;;;;;5013196;28;20029;-20
2021/12/23 02:43:26;;;;;;;8.60;4.45;;;-0.60;65.90;;;;;;5013130;28;20057;-20
2021/12/23 02:45:56;;;;;;;12.73;6.20;;;-0.60;65.70;;;;;;5013615;28;20483;-22
2021/12/23 02:48:32;;;;;;;10.07;6.22;;;-0.70;65.80;;;;;;5012905;28;20426;-20
2021/12/23 02:51:00;;;;;;;12.95;6.85;;;-0.70;65.80;;;;;;5013228;28;20041;-21
2021/12/23 02:53:26;;;;;;;8.40;4.40;;;-0.70;65.80;;;;;;5013133;28;20036;-21
2021/12/23 02:55:57;;;;;;;7.85;3.88;;;-0.70;65.80;;;;;;5013156;28;20109;-20
2021/12/23 02:58:24;;;;;;;12.77;6.63;;;-0.80;65.70;;;;;;5013412;28;20425;-22
2021/12/23 03:00:52;;;;;;;7.03;4.13;;;-0.80;65.80;;;;;;5011915;28;20397;-21
2021/12/23 03:03:19;;;;;;;8.35;4.85;;;-0.80;65.90;;;;;;5013041;28;20026;-21
2021/12/23 03:05:49;;;;;;;15.90;8.63;;;-0.90;65.80;;;;;;5013691;28;20097;-21
2021/12/23 03:08:15;;;;;;;12.13;6.80;;;-0.90;65.90;;;;;;5013058;28;20034;-23
2021/12/23 03:10:42;;;;;;;24.50;14.70;;;-1.00;66.20;;;;;;5012980;28;20439;-22
2021/12/23 03:13:08;;;;;;;17.35;9.40;;;-1.00;66.70;;;;;;5013829;28;20026;-21
2021/12/23 03:15:33;;;;;;;8.70;4.63;;;-1.00;67.20;;;;;;5013299;28;20037;-22
2021/12/23 03:17:59;;;;;;;7.57;4.10;;;-1.00;67.00;;;;;;5011658;28;20367;-21
2021/12/23 03:20:25;;;;;;;9.10;4.35;;;-1.00;66.70;;;;;;5012829;28;20213;-21
2021/12/23 03:22:51;;;;;;;12.40;6.45;;;-1.00;66.70;;;;;;5012948;28;20033;-21
2021/12/23 03:25:17;;;;;;;7.97;4.13;;;-1.00;66.60;;;;;;5013241;28;20022;-20
2021/12/23 03:27:43;;;;;;;7.90;4.05;;;-0.90;66.40;;;;;;5013057;28;20105;-21
2021/12/23 03:30:10;;;;;;;23.17;12.50;;;-0.90;66.50;;;;;;5014552;28;20157;-21
2021/12/23 03:32:36;;;;;;;24.52;14.18;;;-0.80;66.30;;;;;;5015593;28;20080;-22
2021/12/23 03:35:03;;;;;;;10.38;4.85;;;-0.80;66.80;;;;;;5016870;28;20131;-21
2021/12/23 03:37:29;;;;;;;18.17;10.82;;;-0.80;66.60;;;;;;5016755;28;20029;-21
2021/12/23 03:39:55;;;;;;;13.32;7.72;;;-0.80;66.70;;;;;;5016553;28;20386;-21
2021/12/23 03:42:22;;;;;;;18.15;8.60;;;-0.80;66.80;;;;;;5016183;28;20065;-20
2021/12/23 03:44:48;;;;;;;15.27;9.13;;;-0.80;66.50;;;;;;5016336;28;20030;-20
2021/12/23 03:47:14;;;;;;;13.70;8.35;;;-0.80;66.30;;;;;;5014891;28;20072;-22
2021/12/23 03:49:40;;;;;;;20.23;11.52;;;-0.80;67.40;;;;;;5016420;28;20037;-22
2021/12/23 03:52:06;;;;;;;13.65;6.82;;;-0.80;66.80;;;;;;5016459;28;20030;-21
2021/12/23 03:54:32;;;;;;;15.85;9.10;;;-0.90;66.60;;;;;;5016522;28;20344;-21
2021/12/23 03:56:58;;;;;;;12.60;7.55;;;-0.90;66.60;;;;;;5016395;28;20025;-20
2021/12/23 03:59:24;;;;;;;8.88;4.85;;;-0.90;66.70;;;;;;5016519;28;20486;-21
2021/12/23 04:01:50;;;;;;;25.83;14.75;;;-0.90;66.50;;;;;;5016047;28;20072;-22
2021/12/23 04:04:16;;;;;;;15.10;8.18;;;-0.90;66.50;;;;;;5015676;28;20092;-22
2021/12/23 04:06:42;;;;;;;19.23;9.85;;;-1.00;67.30;;;;;;5015828;28;20051;-21
2021/12/23 04:09:08;;;;;;;33.00;16.75;;;-1.00;68.70;;;;;;5016428;28;20105;-21
2021/12/23 04:11:34;;;;;;;18.38;10.52;;;-1.00;68.30;;;;;;5015642;28;20025;-20
2021/12/23 04:14:00;;;;;;;17.88;10.13;;;-1.00;68.60;;;;;;5016046;28;20057;-21
2021/12/23 04:16:26;;;;;;;14.95;8.40;;;-1.00;67.90;;;;;;5016307;28;20029;-20
2021/12/23 04:18:52;;;;;;;11.93;6.05;;;-1.00;67.90;;;;;;5015888;28;20030;-20
2021/12/23 04:21:19;;;;;;;16.98;9.65;;;-1.00;67.80;;;;;;5015933;28;20041;-21
2021/12/23 04:23:45;;;;;;;18.00;10.38;;;-1.00;68.70;;;;;;5015615;28;20037;-21
2021/12/23 04:26:11;;;;;;;15.88;8.48;;;-1.00;68.10;;;;;;5015818;28;20037;-19
2021/12/23 04:28:45;;;;;;;16.48;8.10;;;-1.00;68.00;;;;;;5015486;28;20026;-22
2021/12/23 04:31:23;;;;;;;11.57;6.70;;;-0.90;68.00;;;;;;5015702;28;20056;-21
2021/12/23 04:33:51;;;;;;;16.15;8.18;;;-0.90;67.40;;;;;;5015382;28;20030;-22
2021/12/23 04:36:18;;;;;;;12.77;6.88;;;-0.90;67.30;;;;;;5015117;28;20117;-20
2021/12/23 04:38:46;;;;;;;20.58;11.38;;;-0.90;67.20;;;;;;5014078;28;20025;-21
2021/12/23 04:41:14;;;;;;;11.05;5.35;;;-0.80;67.10;;;;;;5014718;28;20026;-20
2021/12/23 04:43:41;;;;;;;11.63;5.40;;;-0.80;67.00;;;;;;5015118;28;20132;-21
2021/12/23 04:46:07;;;;;;;13.95;6.90;;;-0.80;66.80;;;;;;5015499;28;20478;-20
2021/12/23 04:48:34;;;;;;;8.55;4.97;;;-0.80;66.70;;;;;;5015325;28;20036;-20
2021/12/23 04:51:01;;;;;;;14.50;8.52;;;-0.80;66.60;;;;;;5015576;28;20121;-21
2021/12/23 04:53:27;;;;;;;16.33;8.40;;;-0.80;66.50;;;;;;5015053;28;20097;-20
2021/12/23 04:55:53;;;;;;;25.52;15.20;;;-0.80;66.60;;;;;;5013778;28;20113;-21
2021/12/23 04:58:19;;;;;;;9.02;4.93;;;-0.80;67.30;;;;;;5013471;28;20053;-20
2021/12/23 05:00:49;;;;;;;14.85;8.38;;;-0.90;67.40;;;;;;5015356;28;20022;-20
2021/12/23 05:03:20;;;;;;;13.63;8.38;;;-0.90;66.90;;;;;;5015069;28;20026;-21
2021/12/23 05:05:47;;;;;;;12.82;6.38;;;-0.90;66.80;;;;;;5015096;28;20030;-20
2021/12/23 05:08:14;;;;;;;11.90;6.32;;;-0.90;66.80;;;;;;5014469;28;20536;-21
2021/12/23 05:10:41;;;;;;;8.98;4.75;;;-0.90;66.80;;;;;;5014686;28;20049;-21
2021/12/23 05:13:08;;;;;;;11.30;6.40;;;-1.00;66.70;;;;;;5014631;28;20084;-20
2021/12/23 05:15:34;;;;;;;9.65;4.32;;;-1.00;66.70;;;;;;5015259;28;20057;-21
2021/12/23 05:18:01;;;;;;;5.43;3.45;;;-1.00;66.70;;;;;;5013274;28;20084;-21
2021/12/23 05:20:28;;;;;;;13.50;7.45;;;-1.00;66.60;;;;;;5014336;28;20026;-21
2021/12/23 05:22:54;;;;;;;11.77;6.00;;;-1.00;66.70;;;;;;5014867;28;20053;-22
2021/12/23 05:25:20;;;;;;;15.15;8.98;;;-1.00;67.50;;;;;;5013254;28;20040;-21
2021/12/23 05:27:48;;;;;;;20.80;12.50;;;-1.00;67.30;;;;;;5014400;28;20037;-21
2021/12/23 05:30:17;;;;;;;15.68;8.75;;;-1.10;67.70;;;;;;5014374;28;20116;-22
2021/12/23 05:32:44;;;;;;;28.52;17.60;;;-1.10;67.30;;;;;;5014190;28;20057;-20
2021/12/23 05:35:12;;;;;;;10.43;4.82;;;-1.10;67.80;;;;;;5014239;28;20036;-20
2021/12/23 05:37:39;;;;;;;7.50;4.20;;;-1.10;67.50;;;;;;5014201;28;20377;-21
2021/12/23 05:40:08;;;;;;;15.02;7.65;;;-1.00;67.40;;;;;;5014485;28;20095;-21
2021/12/23 05:42:34;;;;;;;8.88;4.63;;;-1.00;67.30;;;;;;5013603;28;20089;-21
2021/12/23 05:45:00;;;;;;;13.52;7.90;;;-0.90;67.70;;;;;;5014457;28;20381;-21
2021/12/23 05:47:26;;;;;;;25.55;12.50;;;-0.90;67.30;;;;;;5013952;28;20030;-21
2021/12/23 05:49:52;;;;;;;17.48;9.63;;;-0.90;67.40;;;;;;5013834;28;20040;-20
2021/12/23 05:52:18;;;;;;;15.38;7.05;;;-0.80;67.50;;;;;;5013823;28;20053;-21
2021/12/23 05:54:44;;;;;;;18.42;10.00;;;-0.80;67.50;;;;;;5013921;28;20088;-20
2021/12/23 05:57:10;;;;;;;43.70;23.23;;;-0.80;68.40;;;;;;5013842;28;20026;-20
2021/12/23 05:59:37;;;;;;;21.10;11.52;;;-0.80;68.10;;;;;;5013813;28;20036;-21
2021/12/23 06:02:05;;;;;;;26.13;14.65;;;-0.80;69.00;;;;;;5013731;28;20036;-20
2021/12/23 06:04:32;;;;;;;32.85;19.15;;;-0.80;68.50;;;;;;5013474;28;20034;-21
2021/12/23 06:06:58;;;;;;;13.77;7.15;;;-0.80;70.30;;;;;;5013753;28;20026;-21
2021/12/23 06:09:24;;;;;;;20.80;11.48;;;-0.80;69.40;;;;;;5014166;28;20036;-21
2021/12/23 06:11:50;;;;;;;31.50;15.52;;;-0.90;69.00;;;;;;5013703;28;20025;-21
2021/12/23 06:14:18;;;;;;;18.48;8.52;;;-0.90;69.40;;;;;;5013552;28;20493;-21
2021/12/23 06:16:45;;;;;;;8.02;4.65;;;-0.90;68.90;;;;;;5013817;28;20026;-20
2021/12/23 06:19:11;;;;;;;9.00;5.25;;;-0.90;68.30;;;;;;5013515;28;20026;-20
2021/12/23 06:21:38;;;;;;;10.82;5.85;;;-0.90;68.00;;;;;;5014167;28;20022;-21
2021/12/23 06:24:04;;;;;;;18.00;10.85;;;-0.90;67.80;;;;;;5013543;28;20064;-21
2021/12/23 06:26:31;;;;;;;28.52;14.88;;;-0.90;68.20;;;;;;5012142;28;20080;-21
2021/12/23 06:28:58;;;;;;;13.32;7.57;;;-0.90;68.40;;;;;;5013750;28;20030;-21
2021/12/23 06:31:25;;;;;;;17.15;9.18;;;-0.90;68.20;;;;;;5013370;28;20038;-21
2021/12/23 06:33:51;;;;;;;14.38;8.30;;;-0.90;68.30;;;;;;5013537;28;20474;-20
2021/12/23 06:36:17;;;;;;;12.23;6.25;;;-0.90;68.20;;;;;;5013381;28;20106;-20
2021/12/23 06:38:45;;;;;;;10.85;5.28;;;-0.90;68.10;;;;;;5013339;28;20030;-21
2021/12/23 06:41:12;;;;;;;16.52;8.45;;;-0.80;68.50;;;;;;5013419;28;20029;-20
2021/12/23 06:43:39;;;;;;;13.00;7.20;;;-0.80;68.20;;;;;;5013086;28;20104;-22
2021/12/23 06:46:05;;;;;;;15.98;7.90;;;-0.70;68.30;;;;;;5013321;28;20516;-21
2021/12/23 06:48:32;;;;;;;13.18;7.10;;;-0.70;68.00;;;;;;5012982;28;20026;-21
2021/12/23 06:50:59;;;;;;;11.15;5.72;;;-0.70;68.10;;;;;;5013167;28;20034;-21
2021/12/23 06:53:27;;;;;;;28.92;16.30;;;-0.60;68.30;;;;;;5013511;28;20038;-21
2021/12/23 06:55:55;;;;;;;12.80;6.25;;;-0.60;69.00;;;;;;5013170;28;20026;-21
2021/12/23 06:58:23;;;;;;;17.73;9.15;;;-0.60;68.50;;;;;;5013131;28;20117;-20
2021/12/23 07:00:52;;;;;;;11.23;6.18;;;-0.60;67.90;;;;;;5013454;28;20014;-19
2021/12/23 07:03:18;;;;;;;7.68;4.30;;;-0.60;67.80;;;;;;5013019;28;20022;-21
2021/12/23 07:05:44;;;;;;;29.52;18.20;;;-0.50;67.60;;;;;;5015933;28;20100;-20
2021/12/23 07:08:26;;;;;;;14.18;9.85;;;-0.50;68.00;;;;;;5017174;28;20108;-19
2021/12/23 07:10:52;;;;;;;9.00;4.43;;;-0.50;68.10;;;;;;5017224;28;20497;-21
2021/12/23 07:13:19;;;;;;;8.63;4.70;;;-0.50;67.80;;;;;;5017176;28;20034;-20
2021/12/23 07:15:45;;;;;;;8.85;5.05;;;-0.50;67.50;;;;;;5017150;28;20065;-20
2021/12/23 07:18:11;;;;;;;11.25;5.40;;;-0.50;67.50;;;;;;5016721;28;20429;-21
2021/12/23 07:20:37;;;;;;;7.82;4.30;;;-0.50;67.30;;;;;;5016613;28;20417;-21
2021/12/23 07:23:03;;;;;;;11.13;6.07;;;-0.50;67.30;;;;;;5016988;28;20036;-20
2021/12/23 07:25:29;;;;;;;20.23;13.10;;;-0.50;66.80;;;;;;5016698;28;20470;-21
2021/12/23 07:27:55;;;;;;;13.02;6.93;;;-0.50;67.20;;;;;;5016640;28;20057;-21
2021/12/23 07:30:21;;;;;;;12.02;6.78;;;-0.50;67.60;;;;;;5015046;28;20034;-20
2021/12/23 07:32:50;;;;;;;11.23;5.97;;;-0.50;67.60;;;;;;5017286;28;20037;-20
2021/12/23 07:35:18;;;;;;;13.63;8.10;;;-0.40;67.60;;;;;;5016798;28;20022;-20
2021/12/23 07:37:45;;;;;;;24.15;14.60;;;-0.40;67.60;;;;;;5016520;28;20049;-20
2021/12/23 07:40:17;;;;;;;17.98;10.60;;;-0.30;68.30;;;;;;5015160;28;20049;-21
2021/12/23 07:42:53;;;;;;;21.85;13.13;;;-0.20;68.10;;;;;;5016189;28;20093;-20
2021/12/23 07:45:21;;;;;;;48.65;26.55;;;-0.10;68.20;;;;;;5016298;28;20084;-21
2021/12/23 07:47:47;;;;;;;32.28;18.52;;;-0.10;70.10;;;;;;5016173;28;20030;-21
2021/12/23 07:50:13;;;;;;;22.38;12.90;;;0.00;70.30;;;;;;5014666;28;20038;-21
2021/12/23 07:52:39;;;;;;;33.15;18.20;;;0.00;69.40;;;;;;5016141;28;20038;-21
2021/12/23 07:55:06;;;;;;;43.20;23.77;;;0.10;71.20;;;;;;5016445;28;20032;-19
2021/12/23 07:57:32;;;;;;;19.88;11.05;;;0.10;70.90;;;;;;5016113;28;20105;-20
2021/12/23 07:59:59;;;;;;;36.90;20.67;;;0.10;69.70;;;;;;5016387;28;20109;-21
2021/12/23 08:02:25;;;;;;;27.85;14.40;;;0.20;70.40;;;;;;5015685;28;20561;-21
2021/12/23 08:04:51;;;;;;;19.52;11.05;;;0.30;70.50;;;;;;5015358;28;20026;-21
2021/12/23 08:07:17;;;;;;;18.38;9.50;;;0.30;69.70;;;;;;5016195;28;20029;-21
2021/12/23 08:09:43;;;;;;;47.35;26.20;;;0.30;69.20;;;;;;5016139;28;20030;-20
2021/12/23 08:12:10;;;;;;;21.35;12.45;;;0.30;69.70;;;;;;5014620;28;20041;-20
2021/12/23 08:14:36;;;;;;;21.15;11.73;;;0.40;69.60;;;;;;5015578;28;20115;-21
2021/12/23 08:17:02;;;;;;;24.98;15.82;;;0.40;69.20;;;;;;5015470;28;20049;-21
2021/12/23 08:19:28;;;;;;;11.20;6.38;;;0.50;69.20;;;;;;5015971;28;20469;-19
2021/12/23 08:21:54;;;;;;;21.00;12.70;;;0.50;68.90;;;;;;5015894;28;20160;-21
2021/12/23 08:24:20;;;;;;;31.88;17.88;;;0.50;69.00;;;;;;5015682;28;20030;-21
2021/12/23 08:26:51;;;;;;;20.20;12.02;;;0.60;69.30;;;;;;5016401;28;20028;-20
2021/12/23 08:29:19;;;;;;;21.00;12.45;;;0.60;69.40;;;;;;5015538;28;20038;-21
2021/12/23 08:31:47;;;;;;;24.65;14.25;;;0.70;69.60;;;;;;5015512;28;20081;-22
2021/12/23 08:34:13;;;;;;;21.50;12.63;;;0.80;69.20;;;;;;5015300;28;20044;-22
2021/12/23 08:36:39;;;;;;;43.45;24.65;;;0.90;69.00;;;;;;5014038;28;20052;-21
2021/12/23 08:39:05;;;;;;;14.77;8.50;;;1.10;69.00;;;;;;5015860;28;20034;-21
2021/12/23 08:41:31;;;;;;;19.45;12.25;;;1.20;68.60;;;;;;5015290;28;20033;-20
2021/12/23 08:43:57;;;;;;;20.27;12.48;;;1.40;68.70;;;;;;5014353;28;20042;-21
2021/12/23 08:46:23;;;;;;;18.27;10.25;;;1.50;69.00;;;;;;5014300;28;20104;-22
2021/12/23 08:48:49;;;;;;;37.80;21.33;;;1.70;68.40;;;;;;5014347;28;20022;-22
2021/12/23 08:51:15;;;;;;;22.90;12.80;;;1.80;68.80;;;;;;5014390;28;20434;-20
2021/12/23 08:53:42;;;;;;;19.92;11.38;;;2.00;68.50;;;;;;5014133;28;20022;-22
2021/12/23 08:56:08;;;;;;;28.10;16.38;;;2.20;67.70;;;;;;5014042;28;20112;-21
2021/12/23 08:58:39;;;;;;;19.85;12.00;;;2.40;67.90;;;;;;5013871;28;20041;-22
2021/12/23 09:01:06;;;;;;;18.30;11.15;;;2.50;67.40;;;;;;5014324;28;20037;-22
2021/12/23 09:03:33;;;;;;;25.33;14.02;;;2.60;67.10;;;;;;5014171;28;20534;-22
2021/12/23 09:06:01;;;;;;;54.47;29.52;;;2.80;67.20;;;;;;5014494;28;20033;-22
2021/12/23 09:08:28;;;;;;;29.15;17.88;;;2.90;67.30;;;;;;5013621;28;20508;-22
2021/12/23 09:10:56;;;;;;;24.80;13.88;;;3.00;66.70;;;;;;5014089;28;20121;-22
2021/12/23 09:13:23;;;;;;;21.38;12.55;;;3.10;66.70;;;;;;5013788;28;20125;-22
2021/12/23 09:15:51;;;;;;;18.45;11.38;;;3.20;66.30;;;;;;5013949;28;20495;-21
2021/12/23 09:18:19;;;;;;;28.00;17.23;;;3.30;66.10;;;;;;5013321;28;20394;-22
2021/12/23 09:20:46;;;;;;;24.80;14.68;;;3.40;66.10;;;;;;5013732;28;20486;-22
2021/12/23 09:23:13;;;;;;;35.35;22.30;;;3.50;66.10;;;;;;5013591;28;20037;-22
2021/12/23 09:25:39;;;;;;;42.47;24.73;;;3.60;66.00;;;;;;5013896;28;20367;-23
2021/12/23 09:33:29;;;;;;;35.17;20.13;;;3.80;65.70;;;;;;5013748;28;20075;-23
2021/12/23 09:35:56;;;;;;;17.65;9.00;;;3.80;66.10;;;;;;5012225;28;20022;-23
2021/12/23 09:38:29;;;;;;;14.93;9.18;;;3.90;65.40;;;;;;5012107;28;20030;-22
2021/12/23 09:40:59;;;;;;;15.93;9.65;;;4.00;65.60;;;;;;5013336;28;20061;-24
2021/12/23 09:43:28;;;;;;;35.92;20.92;;;4.10;65.30;;;;;;4960552;28;1538496;-23
2021/12/23 09:45:55;;;;;;;21.95;12.63;;;4.30;66.00;;;;;;5014373;28;20453;-23
2021/12/23 09:48:22;;;;;;;27.92;16.83;;;4.50;65.90;;;;;;5013846;28;20105;-24
2021/12/23 09:50:49;;;;;;;29.58;18.52;;;4.70;65.60;;;;;;5013905;28;20076;-22
2021/12/23 09:53:19;;;;;;;20.60;11.85;;;5.00;65.60;;;;;;5014256;28;20148;-22
2021/12/23 09:55:46;;;;;;;23.83;13.63;;;5.20;65.00;;;;;;5014168;28;20057;-24
2021/12/23 09:58:12;;;;;;;34.85;21.23;;;5.40;64.50;;;;;;5013972;28;20071;-25
2021/12/23 10:00:45;;;;;;;32.33;19.83;;;5.60;64.50;;;;;;5013852;28;20452;-24
2021/12/23 10:03:16;;;;;;;35.08;21.77;;;5.80;64.10;;;;;;5014052;28;20018;-23
2021/12/23 10:05:43;;;;;;;17.17;10.15;;;6.00;63.90;;;;;;5014113;28;20049;-23
2021/12/23 10:08:11;;;;;;;20.15;11.85;;;6.10;63.40;;;;;;5014012;28;20029;-23
2021/12/23 10:10:46;;;;;;;17.02;9.65;;;6.20;63.40;;;;;;5013927;28;20038;-22
2021/12/23 10:29:31;;;;;;;18.60;10.85;;;7.20;62.20;;;;;;5031142;28;20080;-22
2021/12/23 10:30:50;;;;;;;30.50;20.10;;;7.40;61.90;;;;;;5030822;28;20033;-20
2021/12/23 10:38:40;;;;;;;23.55;13.32;;;8.00;61.60;;;;;;5013754;28;20026;-23
2021/12/23 10:41:13;;;;;;;15.60;8.98;;;8.30;60.70;;;;;;5013135;28;20053;-23
2021/12/23 10:44:01;;;;;;;18.55;10.55;;;8.50;60.70;;;;;;5013150;28;20443;-24
2021/12/23 10:46:37;;;;;;;24.67;14.80;;;8.70;60.20;;;;;;5013135;28;20113;-22
2021/12/23 10:52:04;;;;;;;24.35;15.85;;;8.80;59.20;;;;;;5013306;28;20029;-23
2021/12/23 11:00:34;;;;;;;23.30;14.15;;;8.70;58.80;;;;;;5013299;28;20077;-21
2021/12/23 11:03:24;;;;;;;37.58;20.70;;;8.80;59.00;;;;;;5013044;28;20026;-21
2021/12/23 11:06:19;;;;;;;35.97;22.48;;;8.90;58.50;;;;;;5013409;28;20105;-22
2021/12/23 11:39:50;;;;;;;38.67;24.92;;;11.80;53.30;;;;;;5013470;28;20034;-23
2021/12/23 11:42:31;;;;;;;29.42;17.00;;;11.90;52.00;;;;;;5012639;28;20037;-21
2021/12/23 11:44:58;;;;;;;34.38;23.58;;;12.00;52.60;;;;;;5013086;28;20076;-23
2021/12/23 11:47:24;;;;;;;28.58;17.35;;;12.20;52.50;;;;;;5013432;28;20520;-21
2021/12/23 11:49:52;;;;;;;36.03;22.13;;;12.30;51.90;;;;;;5012932;28;20389;-24
2021/12/23 11:52:18;;;;;;;44.10;24.55;;;12.40;51.40;;;;;;5015863;28;20030;-21
2021/12/23 11:54:46;;;;;;;31.02;21.15;;;12.50;50.40;;;;;;5016209;28;20053;-22
2021/12/23 11:57:28;;;;;;;28.15;19.77;;;12.60;50.90;;;;;;5016751;28;20485;-22
2021/12/23 12:00:13;;;;;;;36.58;24.15;;;12.60;50.50;;;;;;5016736;28;20022;-22
2021/12/23 12:02:40;;;;;;;33.80;22.15;;;12.70;50.30;;;;;;5015950;28;20048;-21
2021/12/23 12:05:15;;;;;;;31.65;22.55;;;12.60;50.10;;;;;;5016069;28;20549;-22
2021/12/23 12:07:42;;;;;;;29.35;19.98;;;12.50;49.10;;;;;;5015954;28;20053;-22
2021/12/23 12:10:12;;;;;;;24.88;16.27;;;12.50;50.40;;;;;;5016153;28;20113;-21
2021/12/23 12:12:58;;;;;;;19.08;12.15;;;12.50;51.00;;;;;;5016445;28;20446;-22
2021/12/23 12:15:53;;;;;;;18.25;11.93;;;12.50;51.50;;;;;;5016613;28;20028;-24
2021/12/23 12:18:22;;;;;;;27.90;18.70;;;12.60;51.30;;;;;;5010075;28;20121;-22
2021/12/23 12:21:09;;;;;;;23.02;14.18;;;12.70;51.00;;;;;;5015712;28;20588;-22
2021/12/23 12:23:39;;;;;;;27.73;19.30;;;12.80;51.40;;;;;;5015853;28;20053;-22
2021/12/23 12:26:09;;;;;;;24.13;17.23;;;12.80;51.00;;;;;;5015615;28;20477;-22
2021/12/23 12:28:42;;;;;;;27.35;18.92;;;12.80;50.90;;;;;;5014202;28;20359;-23
2021/12/23 12:31:18;;;;;;;29.57;19.00;;;12.80;50.70;;;;;;5015979;28;20026;-23
2021/12/23 12:33:53;;;;;;;17.42;11.48;;;12.80;50.40;;;;;;5015653;28;20755;-22
2021/12/23 12:36:21;;;;;;;31.58;21.98;;;12.70;51.30;;;;;;5015580;28;20041;-22
2021/12/23 12:38:52;;;;;;;28.80;19.95;;;12.70;51.40;;;;;;5015657;28;20058;-22
2021/12/23 12:41:24;;;;;;;27.90;19.25;;;12.60;51.50;;;;;;5015350;28;20117;-23
2021/12/23 12:44:02;;;;;;;26.48;18.08;;;12.60;51.30;;;;;;5015044;28;20048;-22
2021/12/23 12:46:37;;;;;;;23.73;15.82;;;12.40;51.10;;;;;;5015033;28;20363;-21
2021/12/23 12:49:10;;;;;;;25.83;17.25;;;12.30;51.30;;;;;;5015086;28;20041;-21
2021/12/23 12:51:40;;;;;;;21.38;14.15;;;12.30;52.00;;;;;;5015015;28;20033;-23
2021/12/23 12:54:14;;;;;;;18.70;13.35;;;12.20;51.90;;;;;;5013797;28;20116;-21
2021/12/23 12:56:55;;;;;;;31.58;21.65;;;12.20;52.50;;;;;;5015089;28;20030;-23
2021/12/23 12:59:26;;;;;;;30.85;20.75;;;12.20;52.00;;;;;;5015354;28;20022;-24
2021/12/23 13:01:53;;;;;;;24.35;16.77;;;12.20;52.00;;;;;;5014447;28;20085;-22
2021/12/23 13:04:21;;;;;;;26.67;19.52;;;12.20;52.20;;;;;;5014258;28;20355;-23
2021/12/23 13:06:47;;;;;;;29.02;21.00;;;12.20;51.70;;;;;;5015141;28;20033;-22
2021/12/23 13:09:16;;;;;;;20.25;14.10;;;12.30;52.20;;;;;;5014754;28;20486;-22
2021/12/23 13:11:44;;;;;;;28.35;18.50;;;12.30;52.00;;;;;;5014974;28;20038;-23
2021/12/23 13:14:19;;;;;;;22.65;15.63;;;12.20;51.90;;;;;;5014712;28;20026;-21
2021/12/23 13:16:56;;;;;;;26.98;16.98;;;12.20;51.70;;;;;;5015009;28;20032;-22
2021/12/23 13:19:29;;;;;;;27.52;18.95;;;12.20;52.30;;;;;;5014854;28;20026;-22
2021/12/23 13:21:57;;;;;;;20.55;13.93;;;12.10;52.30;;;;;;5014757;28;20033;-22
2021/12/23 13:24:28;;;;;;;20.90;14.30;;;12.00;51.70;;;;;;5014315;28;20068;-22
2021/12/23 13:26:57;;;;;;;16.77;12.13;;;12.00;51.90;;;;;;5015130;28;20022;-24
2021/12/23 13:29:28;;;;;;;20.98;14.07;;;11.90;52.10;;;;;;5015030;28;20034;-22
2021/12/23 13:31:56;;;;;;;18.48;12.50;;;11.90;52.20;;;;;;5014645;28;20045;-24
2021/12/23 13:34:27;;;;;;;19.20;13.05;;;11.90;52.00;;;;;;5014191;28;20026;-22
2021/12/23 13:37:01;;;;;;;20.02;14.73;;;11.80;52.40;;;;;;5014634;28;20052;-23
2021/12/23 13:39:31;;;;;;;19.10;13.77;;;11.80;52.60;;;;;;5014536;28;20482;-23
2021/12/23 13:42:00;;;;;;;27.95;19.90;;;11.70;52.90;;;;;;5014242;28;20117;-20
2021/12/23 13:44:34;;;;;;;25.40;17.10;;;11.60;52.70;;;;;;5013878;28;20099;-22
2021/12/23 13:47:15;;;;;;;27.65;18.60;;;11.50;52.80;;;;;;5014402;28;20026;-22
2021/12/23 13:49:45;;;;;;;23.15;15.07;;;11.40;52.90;;;;;;5014565;28;20026;-21
2021/12/23 13:52:17;;;;;;;25.48;17.00;;;11.30;53.00;;;;;;5014209;28;20034;-23